METAR AND TAF INFORMATION
METAR FOR KADW
ADDS - METARS form results

(0843 UTC 16 December 2019)
Data provider http://aviationweather.gov/metar/data/
 
METAR text: KADW 160831Z AUTO 07007KT 10SM BKN080 02/M03 A3019 RMK AO2 RAE04RAB20E31 SLP232 $
Conditions at: KADW (ANDREWS AFB , MD, US) observed 0831 UTC 16 December 2019
Temperature: 2.0°C (36°F)
Dewpoint: -3.0°C (27°F) [RH = 69%]
Pressure (altimeter): 30.19 inches Hg (1022.4 mb)
[Sea-level pressure: 1023.2 mb]
Winds: from the ENE (70 degrees) at 8 MPH (7 knots; 3.6 m/s)
Visibility: 10 or more miles (16+ km)
Ceiling: 8000 feet AGL
Clouds: broken clouds at 8000 feet AGL
Weather:
SOME DATA ABOVE MAY BE INACCURATE!!!
"$" is an indication the sensor requires maintenance

METAR text: KADW 160820Z AUTO 05008KT 10SM -RA FEW022 SCT085 02/M03 A3020 RMK AO2 RAE04RAB20 PRESFR SLP235 $
Conditions at: KADW (ANDREWS AFB , MD, US) observed 0820 UTC 16 December 2019
Temperature: 2.0°C (36°F)
Dewpoint: -3.0°C (27°F) [RH = 69%]
Pressure (altimeter): 30.20 inches Hg (1022.8 mb)
[Sea-level pressure: 1023.5 mb]
Winds: from the NE (50 degrees) at 9 MPH (8 knots; 4.1 m/s)
Visibility: 10 or more miles (16+ km)
Ceiling: at least 12,000 feet AGL
Clouds: few clouds at 2200 feet AGL
scattered clouds at 8500 feet AGL
Weather: -RA  (light rain)
SOME DATA ABOVE MAY BE INACCURATE!!!
"$" is an indication the sensor requires maintenance

METAR text: KADW 160804Z AUTO 03005KT 10SM FEW023 SCT070 02/M03 A3023 RMK AO2 RAE04 SLP245 $
Conditions at: KADW (ANDREWS AFB , MD, US) observed 0804 UTC 16 December 2019
Temperature: 2.0°C (36°F)
Dewpoint: -3.0°C (27°F) [RH = 69%]
Pressure (altimeter): 30.23 inches Hg (1023.8 mb)
[Sea-level pressure: 1024.5 mb]
Winds: from the NNE (30 degrees) at 6 MPH (5 knots; 2.6 m/s)
Visibility: 10 or more miles (16+ km)
Ceiling: at least 12,000 feet AGL
Clouds: few clouds at 2300 feet AGL
scattered clouds at 7000 feet AGL
Weather:
SOME DATA ABOVE MAY BE INACCURATE!!!
"$" is an indication the sensor requires maintenance

METAR text: KADW 160756Z AUTO 02008KT 10SM -RA FEW070 02/M04 A3023 RMK AO2 UPB46E54RAB54 SLP245 P0000 T00241039 $
Conditions at: KADW (ANDREWS AFB , MD, US) observed 0756 UTC 16 December 2019
Temperature: 2.4°C (36°F)
Dewpoint: -3.9°C (25°F) [RH = 63%]
Pressure (altimeter): 30.23 inches Hg (1023.8 mb)
[Sea-level pressure: 1024.5 mb]
Winds: from the NNE (20 degrees) at 9 MPH (8 knots; 4.1 m/s)
Visibility: 10 or more miles (16+ km)
Ceiling: at least 12,000 feet AGL
Clouds: few clouds at 7000 feet AGL
Weather: -RA  (light rain)
SOME DATA ABOVE MAY BE INACCURATE!!!
"$" is an indication the sensor requires maintenance

METAR text: KADW 160746Z AUTO 01008KT 10SM -UP SCT070 03/M04 A3024 RMK AO2 UPB46 SLP249 $
Conditions at: KADW (ANDREWS AFB , MD, US) observed 0746 UTC 16 December 2019
Temperature: 3.0°C (37°F)
Dewpoint: -4.0°C (25°F) [RH = 60%]
Pressure (altimeter): 30.24 inches Hg (1024.1 mb)
[Sea-level pressure: 1024.9 mb]
Winds: from the N (10 degrees) at 9 MPH (8 knots; 4.1 m/s)
Visibility: 10 or more miles (16+ km)
Ceiling: at least 12,000 feet AGL
Clouds: scattered clouds at 7000 feet AGL
Weather: UP  (unknown precipitation)
SOME DATA ABOVE MAY BE INACCURATE!!!
"$" is an indication the sensor requires maintenance

Forecast for: KADW (ANDREWS AFB , MD, US)
Text: TAF KADW 160100Z 1601/1707 33008KT 9999 SKC QNH3007INS
Forecast period: 0100 to 0400 UTC 16 December 2019
Forecast type: FROM: standard forecast or significant change
Winds: from the NNW (330 degrees) at 9 MPH (8 knots; 4.1 m/s)
Visibility: 6 or more miles 10+ km)
Clouds: clear skies
Weather: no significant weather forecast for this period
Text: BECMG 1604/1605 36006KT 9999 BKN080 QNH3021INS
Forecast period: 0400 to 0700 UTC 16 December 2019
Forecast type: BECOMING: Conditions expected to become as follows by 0500 UTC 16 December 2019
Winds: from the N (360 degrees) at 7 MPH (6 knots; 3.1 m/s)
Visibility: 6 or more miles 10+ km)
Ceiling: 8000 feet AGL
Clouds: broken clouds at 8000 feet AGL
Weather: no significant weather forecast for this period
Text: BECMG 1607/1608 04006KT 4800 -SN OVC015 620159 QNH3022INS
Forecast period: 0700 to 1200 UTC 16 December 2019
Forecast type: BECOMING: Conditions expected to become as follows by 0800 UTC 16 December 2019
Winds: from the NE (40 degrees) at 7 MPH (6 knots; 3.1 m/s)
Visibility: 2.98 miles (4.80 km)
Ceiling: 1500 feet AGL
Clouds: overcast cloud deck at 1500 feet AGL
Weather: -SN  (light snow)
Text: BECMG 1612/1613 10006KT 3200 -SNPL OVC002 620024 620805 QNH3022INS
Forecast period: 1200 to 1500 UTC 16 December 2019
Forecast type: BECOMING: Conditions expected to become as follows by 1300 UTC 16 December 2019
Winds: from the E (100 degrees) at 7 MPH (6 knots; 3.1 m/s)
Visibility: 1.99 miles (3.20 km)
Ceiling: 200 feet AGL
Clouds: overcast cloud deck at 200 feet AGL
Weather: -SN -PL  (light snow, light ice pellets)
Text: BECMG 1615/1616 09006KT 3200 -RA BR BKN005 OVC015 QNH3013INS
Forecast period: 1500 to 1700 UTC 16 December 2019
Forecast type: BECOMING: Conditions expected to become as follows by 1600 UTC 16 December 2019
Winds: from the E (90 degrees) at 7 MPH (6 knots; 3.1 m/s)
Visibility: 1.99 miles (3.20 km)
Ceiling: 500 feet AGL
Clouds: broken clouds at 500 feet AGL
overcast cloud deck at 1500 feet AGL
Weather: -RA BR  (light rain, mist)
Text: BECMG 1617/1618 09006KT 1600 RA BR OVC002 QNH3013INS TX04/1601Z TNM01/1608Z
Forecast period: 1700 UTC 16 December 2019 to 0700 UTC 17 December 2019
Forecast type: BECOMING: Conditions expected to become as follows by 1800 UTC 16 December 2019
Winds: from the E (90 degrees) at 7 MPH (6 knots; 3.1 m/s)
Visibility: 0.99 miles (1.59 km)
Ceiling: 200 feet AGL
Clouds: overcast cloud deck at 200 feet AGL
Weather: RA BR  (moderate rain, mist)

 AIRPORT MAP

 RUNWAY INFORMATION
Runway 01L Runway length 9300 ft Runway width 200 ft
Runway elevation 254 ft Runway displaced threshold 0 ft Runway heading 360
Runway 19R Runway length 9300 ft Runway width 200 ft
Runway elevation 273 ft Runway displaced threshold 0 ft Runway heading 180
Runway 01R Runway length 9755 ft Runway width 150 ft
Runway elevation 252 ft Runway displaced threshold 0 ft Runway heading 360
Runway 19L Runway length 9755 ft Runway width 150 ft
Runway elevation 278 ft Runway displaced threshold 0 ft Runway heading 180

 AIRPORT FREQUENCIES
Type APP Name POTOMAC AP Frequency 119.3 MHZ
Type ATIS Name ATIS Frequency 113.1 MHZ
Type CLD Name CLNC DEL Frequency 127.55 MHZ
Type DEP Name POTOMAC DE Frequency 125.65 MHZ
Type GND Name GND Frequency 121.8 MHZ
Type OPS Name AFRC OPS Frequency 143.8 MHZ
Type PMSV Name PMSV METRO Frequency 34.46 MHZ
Type POST Name COMD POST Frequency 141.55 MHZ
Type PTD Name PTD Frequency 139.3 MHZ
Type TWR Name TWR Frequency 118.4 MHZ

 AIRPORT NEAR NAVIGATION AIDS
Type VORTAC Name Andrews Frequency 113100 KHZ
Type NDB Name Zoote Frequency 232 KHZ
Type NDB Name Kirbe Frequency 360 KHZ